Terminal Aerodrome Forecast
Issued by NWS

Home | Current Version | Previous Version | Graphics & Text | Print | Product List | Glossary On
Versions: 1 2 3 4 5 6 7 8 9 10 11 12 13 14 15 16 17 18 19 20 21 22 23 24
692
FTUS43 KBIS 141724
TAFJMS
TAF
KJMS 141724Z 1418/1518 36012KT 5SM BR OVC007
     FM142300 33009KT P6SM OVC020
     FM150800 28007KT P6SM OVC025
     FM151300 20007KT P6SM OVC035=

USA.gov is the U.S. government's official web portal to all federal, state and local government web resources and services.